Time;durP1;ratioP1;P1;durP2;ratioP2;P2;SDS_P1;SDS_P2;PMS_P1;PMS_P2;Temp;Humidity;BMP_temperature;BMP_pressure;BME280_temperature;BME280_humidity;BME280_pressure;Samples;Min_cycle;Max_cycle;Signal;HPM_P1;HPM_P2
2021/12/12 00:00:42;;;;;;;50.10;21.13;;;;;;;;;;5015147;28;20216;-74
2021/12/12 00:03:16;;;;;;;53.17;21.37;;;;;;;;;;5003205;28;20299;-75
2021/12/12 00:05:50;;;;;;;56.77;21.80;;;;;;;;;;5028489;28;20216;-74
2021/12/12 00:08:18;;;;;;;49.80;22.67;;;;;;;;;;5012135;28;20674;-73
2021/12/12 00:10:49;;;;;;;46.73;21.27;;;;;;;;;;5012393;28;20213;-74
2021/12/12 00:13:19;;;;;;;46.67;22.70;;;;;;;;;;5022353;28;20228;-73
2021/12/12 00:15:48;;;;;;;51.27;23.30;;;;;;;;;;5013649;28;20228;-73
2021/12/12 00:18:13;;;;;;;56.47;23.47;;;;;;;;;;5018291;28;20220;-73
2021/12/12 00:20:41;;;;;;;62.47;24.30;;;;;;;;;;5014385;28;20770;-74
2021/12/12 00:23:07;;;;;;;64.00;23.60;;;;;;;;;;5002256;28;20227;-74
2021/12/12 00:25:39;;;;;;;61.03;24.43;;;;;;;;;;5031394;28;20223;-73
2021/12/12 00:28:08;;;;;;;65.77;25.00;;;;;;;;;;5011092;28;20279;-74
2021/12/12 00:30:33;;;;;;;64.30;24.50;;;;;;;;;;4995168;28;20217;-73
2021/12/12 00:33:02;;;;;;;63.83;23.90;;;;;;;;;;4997772;28;20613;-73
2021/12/12 00:35:30;;;;;;;72.73;23.70;;;;;;;;;;5029136;28;20311;-74
2021/12/12 00:38:01;;;;;;;52.73;22.67;;;;;;;;;;5046722;28;20216;-73
2021/12/12 00:40:30;;;;;;;69.27;24.23;;;;;;;;;;4994972;28;20234;-74
2021/12/12 00:42:57;;;;;;;66.33;23.93;;;;;;;;;;5028386;28;20221;-74
2021/12/12 00:45:27;;;;;;;60.53;23.73;;;;;;;;;;5030437;28;20234;-73
2021/12/12 00:47:53;;;;;;;77.80;25.37;;;;;;;;;;5031214;28;20250;-74
2021/12/12 00:50:23;;;;;;;64.40;23.33;;;;;;;;;;5028141;28;20303;-74
2021/12/12 00:52:49;;;;;;;65.53;24.43;;;;;;;;;;5024303;28;20274;-73
2021/12/12 00:55:17;;;;;;;77.80;24.67;;;;;;;;;;5010672;28;20240;-73
2021/12/12 00:57:44;;;;;;;70.47;25.13;;;;;;;;;;5011656;28;20224;-74
2021/12/12 01:00:10;;;;;;;74.23;25.63;;;;;;;;;;5007659;28;20789;-73
2021/12/12 01:02:39;;;;;;;75.00;24.47;;;;;;;;;;5019236;28;20221;-73
2021/12/12 01:05:10;;;;;;;71.43;27.00;;;;;;;;;;5010176;28;20215;-73
2021/12/12 01:07:39;;;;;;;71.77;23.03;;;;;;;;;;5031171;28;20224;-74
2021/12/12 01:10:14;;;;;;;69.30;25.63;;;;;;;;;;5030194;28;20607;-73
2021/12/12 01:12:44;;;;;;;69.17;24.77;;;;;;;;;;5030907;28;20223;-73
2021/12/12 01:15:23;;;;;;;72.00;24.60;;;;;;;;;;5014982;28;20237;-74
2021/12/12 01:17:53;;;;;;;85.17;25.63;;;;;;;;;;5045252;28;20354;-74
2021/12/12 01:20:31;;;;;;;81.30;25.20;;;;;;;;;;5017010;28;20307;-73
2021/12/12 01:23:02;;;;;;;94.33;26.70;;;;;;;;;;5026692;28;20236;-73
2021/12/12 01:25:30;;;;;;;83.47;25.70;;;;;;;;;;5019868;28;20307;-74
2021/12/12 01:27:57;;;;;;;81.67;26.63;;;;;;;;;;5030385;28;20669;-74
2021/12/12 01:30:26;;;;;;;71.93;24.57;;;;;;;;;;5032106;28;20234;-73
2021/12/12 01:32:51;;;;;;;68.10;25.37;;;;;;;;;;5007706;28;20231;-74
2021/12/12 01:35:20;;;;;;;76.50;26.00;;;;;;;;;;5028812;28;20691;-73
2021/12/12 01:40:51;;;;;;;61.97;24.80;;;;;;;;;;4996105;28;20244;-74
2021/12/12 01:43:26;;;;;;;71.23;24.27;;;;;;;;;;4994641;28;20216;-74
2021/12/12 01:46:02;;;;;;;70.67;26.17;;;;;;;;;;5010421;28;20216;-74
2021/12/12 01:48:38;;;;;;;74.63;27.73;;;;;;;;;;5029937;28;20230;-74
2021/12/12 01:51:10;;;;;;;64.97;24.70;;;;;;;;;;4996189;28;20225;-74
2021/12/12 01:53:43;;;;;;;68.50;25.40;;;;;;;;;;5037900;28;20694;-73
2021/12/12 01:56:12;;;;;;;68.73;25.50;;;;;;;;;;5028301;28;20243;-73
2021/12/12 01:58:42;;;;;;;72.17;27.07;;;;;;;;;;4978424;28;20228;-74
2021/12/12 02:01:15;;;;;;;67.43;26.83;;;;;;;;;;5004731;28;20311;-74
2021/12/12 02:03:44;;;;;;;67.10;26.90;;;;;;;;;;4989693;28;20224;-74
2021/12/12 02:06:13;;;;;;;71.67;26.17;;;;;;;;;;5010173;28;20228;-74
2021/12/12 02:08:39;;;;;;;71.50;25.77;;;;;;;;;;5028738;28;20223;-74
2021/12/12 02:11:09;;;;;;;61.87;24.87;;;;;;;;;;4998016;28;20640;-74
2021/12/12 02:13:56;;;;;;;76.03;26.87;;;;;;;;;;5010466;28;20590;-73
2021/12/12 02:16:25;;;;;;;69.87;27.30;;;;;;;;;;4994265;28;20220;-73
2021/12/12 02:18:53;;;;;;;73.03;25.70;;;;;;;;;;5029388;28;20301;-74
2021/12/12 02:21:27;;;;;;;72.80;27.63;;;;;;;;;;5014096;28;20232;-74
2021/12/12 02:37:31;;;;;;;69.90;26.73;;;;;;;;;;5015876;28;20598;-74
2021/12/12 02:39:57;;;;;;;81.23;27.53;;;;;;;;;;5027568;28;20231;-74
2021/12/12 02:42:23;;;;;;;78.40;27.77;;;;;;;;;;4960877;28;20220;-73
2021/12/12 02:44:55;;;;;;;85.40;29.97;;;;;;;;;;4993482;28;20233;-74
2021/12/12 02:47:31;;;;;;;82.27;28.93;;;;;;;;;;4993798;28;20252;-72
2021/12/12 02:50:08;;;;;;;77.30;29.27;;;;;;;;;;5026179;28;20282;-74
2021/12/12 02:52:34;;;;;;;75.07;28.30;;;;;;;;;;5033906;28;20228;-74
2021/12/12 02:55:00;;;;;;;81.83;31.03;;;;;;;;;;5007207;28;20265;-73
2021/12/12 02:57:28;;;;;;;86.07;28.33;;;;;;;;;;4977052;28;20216;-74
2021/12/12 02:59:57;;;;;;;74.07;28.33;;;;;;;;;;4993252;28;20632;-72
2021/12/12 03:02:29;;;;;;;77.43;28.57;;;;;;;;;;5011113;28;20224;-74
2021/12/12 03:04:57;;;;;;;81.37;30.33;;;;;;;;;;5009517;28;20216;-74
2021/12/12 03:07:22;;;;;;;80.37;29.50;;;;;;;;;;5010271;28;20228;-74
2021/12/12 03:09:51;;;;;;;78.13;28.63;;;;;;;;;;5029239;28;20282;-74
2021/12/12 03:12:19;;;;;;;80.57;30.13;;;;;;;;;;5012186;28;20272;-74
2021/12/12 03:14:46;;;;;;;78.80;30.10;;;;;;;;;;5029950;28;20312;-74
2021/12/12 03:17:20;;;;;;;75.70;28.90;;;;;;;;;;5011574;28;20247;-73
2021/12/12 03:19:51;;;;;;;68.77;28.80;;;;;;;;;;5028885;28;20282;-74
2021/12/12 03:22:17;;;;;;;79.37;30.50;;;;;;;;;;5036818;28;20212;-74
2021/12/12 03:24:47;;;;;;;78.23;29.50;;;;;;;;;;5009487;28;20791;-74
2021/12/12 03:27:16;;;;;;;65.17;27.00;;;;;;;;;;5003556;28;20275;-74
2021/12/12 03:29:44;;;;;;;71.67;29.37;;;;;;;;;;5025689;28;20213;-74
2021/12/12 03:32:12;;;;;;;75.10;28.77;;;;;;;;;;5041530;28;20603;-73
2021/12/12 03:34:49;;;;;;;85.77;30.67;;;;;;;;;;5013519;28;20232;-74
2021/12/12 03:37:18;;;;;;;75.30;29.87;;;;;;;;;;5012104;28;20220;-73
2021/12/12 03:39:51;;;;;;;77.73;29.80;;;;;;;;;;5028866;28;20634;-74
2021/12/12 03:42:19;;;;;;;81.73;31.40;;;;;;;;;;5025850;28;20306;-73
2021/12/12 03:44:45;;;;;;;78.57;30.90;;;;;;;;;;4998575;28;20220;-73
2021/12/12 03:47:12;;;;;;;72.70;30.30;;;;;;;;;;5037033;28;20251;-73
2021/12/12 03:49:38;;;;;;;76.93;30.43;;;;;;;;;;4996435;28;20239;-74
2021/12/12 03:52:09;;;;;;;76.50;30.73;;;;;;;;;;5015603;28;20216;-74
2021/12/12 03:54:37;;;;;;;79.43;31.30;;;;;;;;;;5029248;28;20236;-74
2021/12/12 03:57:03;;;;;;;71.47;30.50;;;;;;;;;;5025161;28;20713;-73
2021/12/12 03:59:30;;;;;;;74.30;30.07;;;;;;;;;;5012369;28;20224;-74
2021/12/12 04:01:56;;;;;;;68.40;28.67;;;;;;;;;;5014795;28;20221;-74
2021/12/12 04:04:34;;;;;;;64.07;27.73;;;;;;;;;;5013247;28;20233;-74
2021/12/12 04:07:06;;;;;;;70.27;29.63;;;;;;;;;;5013885;28;20597;-74
2021/12/12 04:09:35;;;;;;;70.80;29.33;;;;;;;;;;5011699;28;20231;-74
2021/12/12 04:12:03;;;;;;;62.30;29.73;;;;;;;;;;5019199;28;20231;-74
2021/12/12 04:14:28;;;;;;;71.67;28.73;;;;;;;;;;5031023;28;20614;-74
2021/12/12 04:16:56;;;;;;;60.00;27.83;;;;;;;;;;5028937;28;20220;-73
2021/12/12 04:19:22;;;;;;;62.70;28.00;;;;;;;;;;4995806;28;20334;-74
2021/12/12 04:21:47;;;;;;;56.77;27.67;;;;;;;;;;5022089;28;20670;-72
2021/12/12 04:24:26;;;;;;;63.80;26.90;;;;;;;;;;5043898;28;20646;-72
2021/12/12 04:26:54;;;;;;;58.13;27.03;;;;;;;;;;5045138;28;20208;-75
2021/12/12 04:29:24;;;;;;;57.30;26.63;;;;;;;;;;5011098;28;20886;-72
2021/12/12 04:31:52;;;;;;;55.87;26.70;;;;;;;;;;5016036;28;20230;-74
2021/12/12 04:34:22;;;;;;;51.93;26.03;;;;;;;;;;5012904;28;20854;-74
2021/12/12 04:36:48;;;;;;;51.10;26.17;;;;;;;;;;5011537;28;20221;-73
2021/12/12 04:39:21;;;;;;;50.90;26.43;;;;;;;;;;4995103;28;20216;-73
2021/12/12 04:41:50;;;;;;;57.87;25.53;;;;;;;;;;5027537;28;20243;-73
2021/12/12 04:44:29;;;;;;;51.40;25.77;;;;;;;;;;5031942;28;20281;-73
2021/12/12 04:49:56;;;;;;;46.50;23.87;;;;;;;;;;5011765;28;20220;-75
2021/12/12 04:52:34;;;;;;;47.17;25.67;;;;;;;;;;5019120;28;20239;-74
2021/12/12 04:59:05;;;;;;;50.60;23.53;;;;;;;;;;4908419;28;20284;-73
2021/12/12 05:18:10;;;;;;;40.63;21.77;;;;;;;;;;5516102;22;20258;-73
2021/12/12 05:20:39;;;;;;;42.17;21.30;;;;;;;;;;5035856;28;20219;-73
2021/12/12 05:23:14;;;;;;;41.67;21.97;;;;;;;;;;4993058;28;20270;-73
2021/12/12 05:26:00;;;;;;;34.77;19.73;;;;;;;;;;4995814;28;20658;-73
2021/12/12 05:28:35;;;;;;;42.67;22.73;;;;;;;;;;5036699;28;20719;-73
2021/12/12 05:31:01;;;;;;;43.60;21.40;;;;;;;;;;5033953;28;20226;-73
2021/12/12 05:33:28;;;;;;;36.43;21.37;;;;;;;;;;5031580;28;20225;-73
2021/12/12 05:35:54;;;;;;;38.63;20.97;;;;;;;;;;5000986;28;20296;-73
2021/12/12 05:38:23;;;;;;;39.67;19.67;;;;;;;;;;5009876;28;20217;-72
2021/12/12 05:40:53;;;;;;;40.40;20.27;;;;;;;;;;4977978;28;20600;-74
2021/12/12 05:43:21;;;;;;;36.77;19.77;;;;;;;;;;4986677;28;20219;-73
2021/12/12 05:45:47;;;;;;;36.73;20.37;;;;;;;;;;5033079;28;20258;-73
2021/12/12 05:48:15;;;;;;;36.07;19.33;;;;;;;;;;5046218;28;20286;-74
2021/12/12 05:50:41;;;;;;;36.03;19.97;;;;;;;;;;5012829;28;20277;-73
2021/12/12 05:53:09;;;;;;;37.13;19.53;;;;;;;;;;5012653;28;20224;-73
2021/12/12 05:55:37;;;;;;;33.37;17.80;;;;;;;;;;5049472;28;20281;-74
2021/12/12 05:58:04;;;;;;;34.90;18.07;;;;;;;;;;5032368;28;20215;-74
2021/12/12 06:00:33;;;;;;;33.90;17.27;;;;;;;;;;5012711;28;20589;-74
2021/12/12 06:03:00;;;;;;;34.83;18.40;;;;;;;;;;5020969;28;20288;-74
2021/12/12 06:05:27;;;;;;;33.33;16.90;;;;;;;;;;5008904;28;20660;-74
2021/12/12 06:07:58;;;;;;;30.87;17.67;;;;;;;;;;5017075;28;20223;-74
2021/12/12 06:10:26;;;;;;;30.47;16.57;;;;;;;;;;5032491;28;20221;-74
2021/12/12 06:12:52;;;;;;;30.13;17.23;;;;;;;;;;5032399;28;20715;-74
2021/12/12 06:15:20;;;;;;;28.97;16.10;;;;;;;;;;4995935;28;20236;-75
2021/12/12 06:17:48;;;;;;;29.43;16.00;;;;;;;;;;4978920;28;20680;-74
2021/12/12 06:20:21;;;;;;;28.57;16.10;;;;;;;;;;5007598;28;20216;-75
2021/12/12 06:22:49;;;;;;;28.53;15.50;;;;;;;;;;5032906;28;20227;-74
2021/12/12 06:25:17;;;;;;;24.90;14.97;;;;;;;;;;5014564;28;20228;-75
2021/12/12 06:27:45;;;;;;;31.77;15.27;;;;;;;;;;4977239;28;20223;-74
2021/12/12 06:30:13;;;;;;;27.47;15.37;;;;;;;;;;5009201;28;20219;-75
2021/12/12 06:32:45;;;;;;;30.77;15.77;;;;;;;;;;5031713;28;20216;-74
2021/12/12 06:35:13;;;;;;;26.53;14.80;;;;;;;;;;5006804;28;20306;-74
2021/12/12 06:37:40;;;;;;;24.30;14.60;;;;;;;;;;5049198;28;20219;-73
2021/12/12 06:40:10;;;;;;;25.00;14.50;;;;;;;;;;5048076;28;20239;-74
2021/12/12 06:42:38;;;;;;;30.07;14.93;;;;;;;;;;5032213;28;20220;-75
2021/12/12 06:45:07;;;;;;;27.87;15.60;;;;;;;;;;5017830;28;20224;-75
2021/12/12 06:47:32;;;;;;;28.87;14.77;;;;;;;;;;4993674;28;20717;-75
2021/12/12 06:50:01;;;;;;;24.70;13.47;;;;;;;;;;4981941;28;20223;-74
2021/12/12 06:52:28;;;;;;;24.33;14.33;;;;;;;;;;5008372;28;20247;-74
2021/12/12 06:54:56;;;;;;;28.10;15.00;;;;;;;;;;5020404;28;20322;-73
2021/12/12 06:57:24;;;;;;;25.40;14.53;;;;;;;;;;5014920;28;20289;-74
2021/12/12 06:59:53;;;;;;;26.70;14.30;;;;;;;;;;5006107;28;20208;-74
2021/12/12 07:02:24;;;;;;;26.10;14.13;;;;;;;;;;4981385;28;20234;-75
2021/12/12 07:04:49;;;;;;;26.40;13.53;;;;;;;;;;5010577;28;20207;-74
2021/12/12 07:07:15;;;;;;;31.20;14.47;;;;;;;;;;5035973;28;20215;-74
2021/12/12 07:09:41;;;;;;;30.07;14.53;;;;;;;;;;5012532;28;20224;-74
2021/12/12 07:12:13;;;;;;;29.70;13.87;;;;;;;;;;4995905;28;20221;-73
2021/12/12 07:14:42;;;;;;;22.80;13.33;;;;;;;;;;4972824;28;20246;-73
2021/12/12 07:17:08;;;;;;;25.60;13.37;;;;;;;;;;5018541;28;20243;-75
2021/12/12 07:19:36;;;;;;;23.00;12.80;;;;;;;;;;5031307;28;20211;-72
2021/12/12 07:22:03;;;;;;;25.13;13.47;;;;;;;;;;4999555;28;20228;-74
2021/12/12 07:24:32;;;;;;;24.40;13.00;;;;;;;;;;4983995;28;20346;-73
2021/12/12 07:27:00;;;;;;;22.20;13.70;;;;;;;;;;5003376;28;20227;-74
2021/12/12 07:29:28;;;;;;;24.77;14.17;;;;;;;;;;5052537;28;20211;-74
2021/12/12 07:31:54;;;;;;;24.40;13.37;;;;;;;;;;5035148;28;20237;-73
2021/12/12 07:34:22;;;;;;;28.10;13.77;;;;;;;;;;5025911;28;20219;-74
2021/12/12 07:36:56;;;;;;;23.60;14.13;;;;;;;;;;5019697;28;20302;-73
2021/12/12 07:39:25;;;;;;;24.40;13.20;;;;;;;;;;5027570;28;20377;-73
2021/12/12 07:41:51;;;;;;;26.93;13.60;;;;;;;;;;5013250;28;20234;-73
2021/12/12 07:44:24;;;;;;;22.00;12.40;;;;;;;;;;5027550;28;20247;-73
2021/12/12 07:46:50;;;;;;;25.53;13.53;;;;;;;;;;5053225;28;20294;-73
2021/12/12 07:49:21;;;;;;;26.57;13.83;;;;;;;;;;5034552;28;20776;-73
2021/12/12 07:51:46;;;;;;;28.63;13.90;;;;;;;;;;5016942;28;20221;-75
2021/12/12 07:54:12;;;;;;;26.00;13.27;;;;;;;;;;4979713;28;20712;-74
2021/12/12 07:56:41;;;;;;;21.97;12.90;;;;;;;;;;5029695;28;20697;-74
2021/12/12 07:59:08;;;;;;;23.33;12.73;;;;;;;;;;5041432;28;20227;-73
2021/12/12 08:01:36;;;;;;;22.73;12.27;;;;;;;;;;5025000;28;20216;-73
2021/12/12 08:04:04;;;;;;;25.73;12.37;;;;;;;;;;5046391;28;20296;-74
2021/12/12 08:06:30;;;;;;;23.70;12.17;;;;;;;;;;5035124;28;20249;-74
2021/12/12 08:08:56;;;;;;;19.60;11.40;;;;;;;;;;5046094;28;20240;-75
2021/12/12 08:11:26;;;;;;;21.33;11.93;;;;;;;;;;5049012;28;20245;-73
2021/12/12 08:13:54;;;;;;;19.23;10.27;;;;;;;;;;5051600;28;20226;-74
2021/12/12 08:16:21;;;;;;;18.90;9.70;;;;;;;;;;5039789;28;20216;-73
2021/12/12 08:18:46;;;;;;;23.37;9.87;;;;;;;;;;5009920;28;20748;-73
2021/12/12 08:21:14;;;;;;;15.13;9.00;;;;;;;;;;5036210;28;20251;-73
2021/12/12 08:23:42;;;;;;;21.33;9.53;;;;;;;;;;5052493;28;20247;-73
2021/12/12 08:26:09;;;;;;;15.77;8.87;;;;;;;;;;5045589;28;20219;-73
2021/12/12 08:28:43;;;;;;;16.60;9.73;;;;;;;;;;5008700;28;20279;-73
2021/12/12 08:31:10;;;;;;;18.67;9.17;;;;;;;;;;5003930;28;20212;-76
2021/12/12 08:33:35;;;;;;;17.93;8.57;;;;;;;;;;5033924;28;20219;-74
2021/12/12 08:36:06;;;;;;;17.43;9.40;;;;;;;;;;5033908;28;20224;-73
2021/12/12 08:38:35;;;;;;;18.63;9.03;;;;;;;;;;5031993;28;20290;-73
2021/12/12 08:41:05;;;;;;;18.77;10.73;;;;;;;;;;5001976;28;20226;-74
2021/12/12 08:43:31;;;;;;;15.03;8.43;;;;;;;;;;5024465;28;20220;-73
2021/12/12 08:46:06;;;;;;;18.83;8.80;;;;;;;;;;5036754;28;20696;-73
2021/12/12 08:48:37;;;;;;;19.23;9.27;;;;;;;;;;5050699;28;20215;-75
2021/12/12 08:51:07;;;;;;;15.67;9.07;;;;;;;;;;5049486;28;20230;-73
2021/12/12 08:53:33;;;;;;;11.37;7.70;;;;;;;;;;4998132;28;20662;-74
2021/12/12 08:55:59;;;;;;;15.60;7.30;;;;;;;;;;5014521;28;20319;-74
2021/12/12 08:58:30;;;;;;;20.37;8.37;;;;;;;;;;5050602;28;20215;-74
2021/12/12 09:01:04;;;;;;;16.17;8.80;;;;;;;;;;5050337;28;20695;-73
2021/12/12 09:03:42;;;;;;;14.37;7.87;;;;;;;;;;5031665;28;20219;-73
2021/12/12 09:06:11;;;;;;;12.57;7.77;;;;;;;;;;5015970;28;20258;-73
2021/12/12 09:08:47;;;;;;;12.83;6.87;;;;;;;;;;5018243;28;20224;-73
2021/12/12 09:11:18;;;;;;;16.63;8.00;;;;;;;;;;5017073;28;20279;-73
2021/12/12 09:13:53;;;;;;;14.73;7.67;;;;;;;;;;5003817;28;20665;-74
2021/12/12 09:16:22;;;;;;;14.43;7.60;;;;;;;;;;5013816;28;20606;-74
2021/12/12 09:19:00;;;;;;;12.63;7.87;;;;;;;;;;5017101;28;20715;-75
2021/12/12 09:21:50;;;;;;;12.97;7.37;;;;;;;;;;5016284;28;20227;-73
2021/12/12 09:24:30;;;;;;;14.80;8.13;;;;;;;;;;5010805;28;20219;-74
2021/12/12 09:27:02;;;;;;;13.03;7.43;;;;;;;;;;5025643;28;20646;-75
2021/12/12 09:29:34;;;;;;;11.17;8.00;;;;;;;;;;5003570;28;20788;-75
2021/12/12 09:32:17;;;;;;;13.53;7.00;;;;;;;;;;5021500;28;20215;-76
2021/12/12 09:35:00;;;;;;;13.67;8.40;;;;;;;;;;5020844;28;20729;-74
2021/12/12 09:37:35;;;;;;;14.37;8.37;;;;;;;;;;4993646;28;20231;-75
2021/12/12 09:40:13;;;;;;;11.17;7.83;;;;;;;;;;5009856;28;20223;-74
2021/12/12 09:42:49;;;;;;;15.77;8.33;;;;;;;;;;5028237;28;20225;-73
2021/12/12 09:45:49;;;;;;;13.03;7.67;;;;;;;;;;5020922;28;20271;-72
2021/12/12 09:52:01;;;;;;;11.33;7.47;;;;;;;;;;5047226;28;20218;-72
2021/12/12 09:54:38;;;;;;;14.20;7.23;;;;;;;;;;4991025;28;20572;-74
2021/12/12 09:57:15;;;;;;;12.10;7.53;;;;;;;;;;5007548;28;20224;-73
2021/12/12 10:00:01;;;;;;;14.20;6.93;;;;;;;;;;5031825;28;20610;-73
2021/12/12 10:02:37;;;;;;;12.47;6.90;;;;;;;;;;5046081;28;20230;-73
2021/12/12 10:05:14;;;;;;;11.93;7.53;;;;;;;;;;5023689;28;20926;-76
2021/12/12 10:07:59;;;;;;;13.93;7.47;;;;;;;;;;4995131;28;20328;-75
2021/12/12 10:10:33;;;;;;;15.43;7.53;;;;;;;;;;5025221;28;20221;-74
2021/12/12 10:13:20;;;;;;;11.07;7.50;;;;;;;;;;5003363;28;20214;-74
2021/12/12 10:15:51;;;;;;;11.57;6.60;;;;;;;;;;5034321;28;20281;-74
2021/12/12 10:18:24;;;;;;;10.73;5.93;;;;;;;;;;5020967;28;20228;-73
2021/12/12 10:21:01;;;;;;;9.03;6.47;;;;;;;;;;4977297;28;20223;-73
2021/12/12 10:23:47;;;;;;;8.70;6.33;;;;;;;;;;4982619;28;20709;-73
2021/12/12 10:26:21;;;;;;;10.50;8.00;;;;;;;;;;5012531;28;20217;-73
2021/12/12 10:29:03;;;;;;;14.03;7.10;;;;;;;;;;4975865;28;20216;-73
2021/12/12 10:31:42;;;;;;;9.90;6.93;;;;;;;;;;4977248;28;20694;-74
2021/12/12 10:34:20;;;;;;;9.47;6.47;;;;;;;;;;5026416;28;20276;-74
2021/12/12 10:37:10;;;;;;;13.20;7.00;;;;;;;;;;4993112;28;20353;-73
2021/12/12 10:40:02;;;;;;;11.37;6.80;;;;;;;;;;5032186;28;20277;-74
2021/12/12 10:42:37;;;;;;;10.00;6.27;;;;;;;;;;5016568;28;20283;-74
2021/12/12 10:45:08;;;;;;;10.03;7.23;;;;;;;;;;5000882;28;20727;-74
2021/12/12 10:47:38;;;;;;;13.67;7.47;;;;;;;;;;4991616;28;20215;-73
2021/12/12 10:50:14;;;;;;;10.20;6.57;;;;;;;;;;5041942;28;20228;-74
2021/12/12 10:53:01;;;;;;;10.03;6.67;;;;;;;;;;5047035;28;20226;-73
2021/12/12 10:56:09;;;;;;;9.93;7.20;;;;;;;;;;5027778;28;20266;-75
2021/12/12 10:58:43;;;;;;;9.40;5.57;;;;;;;;;;5034311;28;20274;-74
2021/12/12 11:01:17;;;;;;;7.43;5.67;;;;;;;;;;5026253;28;20318;-73
2021/12/12 11:04:01;;;;;;;8.73;6.03;;;;;;;;;;5017109;28;20307;-74
2021/12/12 11:06:39;;;;;;;8.33;5.73;;;;;;;;;;5000277;28;20224;-74
2021/12/12 11:09:12;;;;;;;9.30;6.10;;;;;;;;;;4987420;28;20581;-75
2021/12/12 11:11:48;;;;;;;11.40;6.10;;;;;;;;;;5020814;28;20221;-75
2021/12/12 11:14:24;;;;;;;6.67;5.43;;;;;;;;;;5015903;28;20224;-74
2021/12/12 11:16:52;;;;;;;7.90;5.90;;;;;;;;;;5033016;28;20218;-73
2021/12/12 11:19:41;;;;;;;8.07;5.93;;;;;;;;;;5039157;28;20246;-74
2021/12/12 11:22:14;;;;;;;6.80;5.53;;;;;;;;;;5043715;28;20732;-74
2021/12/12 11:24:42;;;;;;;9.33;6.00;;;;;;;;;;5006815;28;20219;-74
2021/12/12 11:27:18;;;;;;;7.27;5.20;;;;;;;;;;4997898;28;20229;-75
2021/12/12 11:29:50;;;;;;;7.73;5.70;;;;;;;;;;5029359;28;20291;-75
2021/12/12 11:32:28;;;;;;;7.63;5.53;;;;;;;;;;5037476;28;20223;-75
2021/12/12 11:34:56;;;;;;;6.70;5.17;;;;;;;;;;5015478;28;20227;-74
2021/12/12 11:37:35;;;;;;;6.90;4.80;;;;;;;;;;5019223;28;20269;-73
2021/12/12 11:40:08;;;;;;;7.07;5.00;;;;;;;;;;5046852;28;20696;-73
2021/12/12 11:42:56;;;;;;;9.13;5.30;;;;;;;;;;5014939;28;20215;-74
2021/12/12 11:45:43;;;;;;;8.53;5.83;;;;;;;;;;5022193;28;20211;-75
2021/12/12 11:48:15;;;;;;;9.10;6.10;;;;;;;;;;5022983;28;20235;-74
2021/12/12 11:50:47;;;;;;;40.17;18.40;;;;;;;;;;5028432;28;20223;-75
2021/12/12 11:53:39;;;;;;;22.50;13.20;;;;;;;;;;5014953;28;20232;-75
2021/12/12 11:56:16;;;;;;;15.07;9.93;;;;;;;;;;5014537;28;20304;-74
2021/12/12 11:59:03;;;;;;;41.63;25.77;;;;;;;;;;4989206;28;20232;-73
2021/12/12 12:01:40;;;;;;;11.97;7.97;;;;;;;;;;5018791;28;20227;-73
2021/12/12 12:04:15;;;;;;;11.73;9.10;;;;;;;;;;5039568;28;20224;-73
2021/12/12 12:07:12;;;;;;;17.23;12.67;;;;;;;;;;5009437;28;20243;-74
2021/12/12 12:10:08;;;;;;;11.47;8.23;;;;;;;;;;4994336;28;20211;-74
2021/12/12 12:13:01;;;;;;;12.37;8.97;;;;;;;;;;5018936;28;20230;-73
2021/12/12 12:15:47;;;;;;;8.90;6.67;;;;;;;;;;5004603;28;20229;-75
2021/12/12 12:18:29;;;;;;;6.90;5.80;;;;;;;;;;5012420;28;20287;-74
2021/12/12 12:21:28;;;;;;;10.43;7.13;;;;;;;;;;5022188;28;20223;-76
2021/12/12 12:27:02;;;;;;;13.93;9.70;;;;;;;;;;5014102;28;20221;-77
2021/12/12 12:29:28;;;;;;;6.80;5.93;;;;;;;;;;5012788;28;20224;-73
2021/12/12 12:32:31;;;;;;;18.57;11.50;;;;;;;;;;5044680;28;20246;-76
2021/12/12 12:35:18;;;;;;;12.13;9.67;;;;;;;;;;5035777;28;20223;-76
2021/12/12 12:38:28;;;;;;;9.60;7.67;;;;;;;;;;5030586;28;20692;-74
2021/12/12 12:40:58;;;;;;;10.20;6.03;;;;;;;;;;5040085;28;20223;-74
2021/12/12 12:44:06;;;;;;;8.83;6.30;;;;;;;;;;5036749;28;20355;-75
2021/12/12 12:46:37;;;;;;;8.43;5.67;;;;;;;;;;5035616;28;20284;-74
2021/12/12 12:49:45;;;;;;;6.67;5.97;;;;;;;;;;5038500;28;20236;-74
2021/12/12 12:52:57;;;;;;;7.33;5.97;;;;;;;;;;5040690;28;20304;-74
2021/12/12 12:56:02;;;;;;;7.33;6.07;;;;;;;;;;5018627;28;20227;-73
2021/12/12 12:58:56;;;;;;;7.13;5.50;;;;;;;;;;5019496;28;20316;-74
2021/12/12 13:02:04;;;;;;;6.83;5.57;;;;;;;;;;5024490;28;20689;-75
2021/12/12 13:04:56;;;;;;;8.93;5.63;;;;;;;;;;5011249;28;20222;-75
2021/12/12 13:07:25;;;;;;;6.37;5.77;;;;;;;;;;5050874;28;20223;-76
2021/12/12 13:10:04;;;;;;;6.80;5.70;;;;;;;;;;5046249;28;20676;-74
2021/12/12 13:12:40;;;;;;;7.20;5.10;;;;;;;;;;5021459;28;20223;-75
2021/12/12 13:15:37;;;;;;;7.80;4.60;;;;;;;;;;5043113;28;20281;-76
2021/12/12 13:18:20;;;;;;;6.37;5.67;;;;;;;;;;5024492;28;20704;-74
2021/12/12 13:21:37;;;;;;;5.83;5.27;;;;;;;;;;5020124;28;20254;-73
2021/12/12 13:24:43;;;;;;;7.30;6.03;;;;;;;;;;5007655;28;20220;-73
2021/12/12 13:28:06;;;;;;;6.70;6.00;;;;;;;;;;5018743;28;20227;-73
2021/12/12 13:30:43;;;;;;;8.10;7.27;;;;;;;;;;5030520;28;20303;-73
2021/12/12 13:33:18;;;;;;;6.07;5.27;;;;;;;;;;5009246;28;20232;-73
2021/12/12 13:36:10;;;;;;;5.80;5.00;;;;;;;;;;5014326;28;20716;-74
2021/12/12 13:38:45;;;;;;;7.47;6.17;;;;;;;;;;4999629;28;20219;-73
2021/12/12 13:41:38;;;;;;;9.70;8.70;;;;;;;;;;5002870;28;20239;-74
2021/12/12 13:44:17;;;;;;;5.90;5.30;;;;;;;;;;5036754;28;20227;-73
2021/12/12 13:47:17;;;;;;;5.67;5.07;;;;;;;;;;4987739;28;20248;-74
2021/12/12 13:49:59;;;;;;;4.93;4.53;;;;;;;;;;5018336;28;20239;-73
2021/12/12 13:52:40;;;;;;;5.03;4.63;;;;;;;;;;5032761;28;20223;-74
2021/12/12 13:55:17;;;;;;;5.23;4.83;;;;;;;;;;5018426;28;20225;-74
2021/12/12 13:57:51;;;;;;;5.40;4.90;;;;;;;;;;4999866;28;20220;-74
2021/12/12 14:00:29;;;;;;;5.00;4.50;;;;;;;;;;5021203;28;20220;-74
2021/12/12 14:03:01;;;;;;;4.70;4.30;;;;;;;;;;4996783;28;20609;-74
2021/12/12 14:05:34;;;;;;;4.63;4.23;;;;;;;;;;5019461;28;20297;-75
2021/12/12 14:08:26;;;;;;;4.03;3.73;;;;;;;;;;5049900;28;20754;-74
2021/12/12 14:10:57;;;;;;;4.27;3.90;;;;;;;;;;5020623;28;20662;-72
2021/12/12 14:13:31;;;;;;;4.77;4.30;;;;;;;;;;4996251;28;20228;-73
2021/12/12 14:16:23;;;;;;;5.80;5.20;;;;;;;;;;5002100;28;20701;-74
2021/12/12 14:19:13;;;;;;;5.67;4.73;;;;;;;;;;4995601;28;20615;-73
2021/12/12 14:21:39;;;;;;;8.73;6.80;;;;;;;;;;5014814;28;20276;-72
2021/12/12 14:24:05;;;;;;;11.93;8.87;;;;;;;;;;5016597;28;20231;-72
2021/12/12 14:26:33;;;;;;;7.93;7.13;;;;;;;;;;5025399;28;20220;-73
2021/12/12 14:29:07;;;;;;;11.70;9.47;;;;;;;;;;5019272;28;20307;-74
2021/12/12 14:31:41;;;;;;;7.80;6.60;;;;;;;;;;5004205;28;20223;-75
2021/12/12 14:34:15;;;;;;;7.67;6.83;;;;;;;;;;5008863;28;20654;-74
2021/12/12 14:36:48;;;;;;;6.23;5.63;;;;;;;;;;5009033;28;20595;-73
2021/12/12 14:39:15;;;;;;;7.20;6.50;;;;;;;;;;4982562;28;20275;-74
2021/12/12 14:41:56;;;;;;;6.03;5.47;;;;;;;;;;4996007;28;20217;-74
2021/12/12 14:44:33;;;;;;;8.07;7.00;;;;;;;;;;5022477;28;20219;-74
2021/12/12 14:47:17;;;;;;;8.47;7.37;;;;;;;;;;5028461;28;20223;-73
2021/12/12 14:50:18;;;;;;;8.20;7.40;;;;;;;;;;5038629;28;20292;-75
2021/12/12 14:52:57;;;;;;;10.70;7.50;;;;;;;;;;5044929;28;20280;-74
2021/12/12 14:55:29;;;;;;;7.33;6.63;;;;;;;;;;4993573;28;20266;-74
2021/12/12 14:58:11;;;;;;;8.93;8.00;;;;;;;;;;4994399;28;20225;-73
2021/12/12 15:00:48;;;;;;;8.70;7.90;;;;;;;;;;5013279;28;20676;-73
2021/12/12 15:03:20;;;;;;;8.53;7.73;;;;;;;;;;5031730;28;20231;-74
2021/12/12 15:05:57;;;;;;;8.53;7.73;;;;;;;;;;5019450;28;20219;-74
2021/12/12 15:08:44;;;;;;;7.17;6.47;;;;;;;;;;4994461;28;20224;-74
2021/12/12 15:11:18;;;;;;;8.63;7.70;;;;;;;;;;5011234;28;20600;-75
2021/12/12 15:13:47;;;;;;;8.53;6.80;;;;;;;;;;5021087;28;20259;-73
2021/12/12 15:16:19;;;;;;;7.93;7.23;;;;;;;;;;5013012;28;20229;-72
2021/12/12 15:18:47;;;;;;;7.80;6.90;;;;;;;;;;5001533;28;20217;-75
2021/12/12 15:21:14;;;;;;;8.63;7.77;;;;;;;;;;5008959;28;20245;-75
2021/12/12 15:23:47;;;;;;;8.40;7.60;;;;;;;;;;5009582;28;20600;-75
2021/12/12 15:26:28;;;;;;;9.00;8.10;;;;;;;;;;5020282;28;20227;-75
2021/12/12 15:28:58;;;;;;;9.63;8.70;;;;;;;;;;5017659;28;20212;-75
2021/12/12 15:31:29;;;;;;;9.73;8.73;;;;;;;;;;5001105;28;20230;-76
2021/12/12 15:33:58;;;;;;;10.47;9.47;;;;;;;;;;5015698;28;20223;-75
2021/12/12 15:36:28;;;;;;;9.27;8.57;;;;;;;;;;5024159;28;20363;-76
2021/12/12 15:38:54;;;;;;;9.63;8.73;;;;;;;;;;5010209;28;20219;-76
2021/12/12 15:41:41;;;;;;;9.13;8.23;;;;;;;;;;5016908;28;20211;-72
2021/12/12 15:44:24;;;;;;;8.63;7.80;;;;;;;;;;5016329;28;20235;-73
2021/12/12 15:46:51;;;;;;;9.87;8.97;;;;;;;;;;4981484;28;20224;-74
2021/12/12 15:49:26;;;;;;;10.57;9.57;;;;;;;;;;5009097;28;20235;-73
2021/12/12 15:52:05;;;;;;;10.20;9.20;;;;;;;;;;5008386;28;20223;-74